createdAt,value
2023-03-04T00:02:17.580Z,98506.00
2023-03-04T00:04:47.084Z,98512.59
2023-03-04T00:07:16.904Z,98511.22
2023-03-04T00:09:45.092Z,98512.44
2023-03-04T00:12:12.339Z,98517.06
2023-03-04T00:14:38.867Z,98521.56
2023-03-04T00:17:05.570Z,98508.38
2023-03-04T00:19:32.057Z,98510.63
2023-03-04T00:21:58.650Z,98499.00
2023-03-04T00:24:25.471Z,98519.31
2023-03-04T00:26:51.979Z,98502.66
2023-03-04T00:29:18.690Z,98498.47
2023-03-04T00:31:45.203Z,98521.38
2023-03-04T00:34:11.964Z,98530.97
2023-03-04T00:36:38.554Z,98517.47
2023-03-04T00:39:05.680Z,98513.75
2023-03-04T00:41:32.620Z,98513.53
2023-03-04T00:43:59.366Z,98504.75
2023-03-04T00:46:25.876Z,98523.16
2023-03-04T00:48:52.614Z,98499.91
2023-03-04T00:51:19.013Z,98501.50
2023-03-04T00:53:45.528Z,98528.78
2023-03-04T00:56:11.932Z,98506.66
2023-03-04T00:58:39.587Z,98495.28
2023-03-04T01:01:07.329Z,98514.66
2023-03-04T01:03:34.605Z,98489.72
2023-03-04T01:06:01.276Z,98519.34
2023-03-04T01:08:28.479Z,98507.28
2023-03-04T01:10:54.993Z,98502.78
2023-03-04T01:13:21.500Z,98508.41
2023-03-04T01:15:48.269Z,98497.25
2023-03-04T01:18:14.766Z,98479.38
2023-03-04T01:20:41.191Z,98475.84
2023-03-04T01:23:07.860Z,98498.44
2023-03-04T01:25:34.515Z,98474.97
2023-03-04T01:28:01.110Z,98490.78
2023-03-04T01:30:27.561Z,98510.63
2023-03-04T01:32:54.100Z,98501.03
2023-03-04T01:35:20.540Z,98489.13
2023-03-04T01:37:47.004Z,98480.13
2023-03-04T01:40:14.138Z,98505.63
2023-03-04T01:42:40.877Z,98507.28
2023-03-04T01:45:11.144Z,98500.91
2023-03-04T01:47:37.634Z,98499.59
2023-03-04T01:50:14.153Z,98505.59
2023-03-04T01:52:43.414Z,98483.88
2023-03-04T01:55:21.358Z,98505.41
2023-03-04T01:57:50.065Z,98494.03
2023-03-04T02:00:32.846Z,98493.06
2023-03-04T02:03:02.737Z,98489.66
2023-03-04T02:05:29.956Z,98484.31
2023-03-04T02:07:58.747Z,98493.72
2023-03-04T02:10:25.711Z,98493.50
2023-03-04T02:12:52.945Z,98488.28
2023-03-04T02:15:19.580Z,98484.84
2023-03-04T02:17:46.311Z,98474.72
2023-03-04T02:20:37.477Z,98485.56
2023-03-04T02:23:25.680Z,98483.69
2023-03-04T02:28:43.301Z,98473.34
2023-03-04T02:31:24.896Z,98484.75
2023-03-04T02:33:53.833Z,98479.00
2023-03-04T02:36:20.398Z,98478.19
2023-03-04T02:38:46.838Z,98476.00
2023-03-04T02:41:21.569Z,98482.03
2023-03-04T02:43:51.813Z,98484.31
2023-03-04T02:46:18.751Z,98477.75
2023-03-04T02:48:45.501Z,98476.09
2023-03-04T02:51:12.124Z,98472.31
2023-03-04T02:53:38.584Z,98490.00
2023-03-04T02:56:05.375Z,98479.34
2023-03-04T02:58:32.155Z,98487.78
2023-03-04T03:00:58.715Z,98479.00
2023-03-04T03:03:25.455Z,98470.13
2023-03-04T03:05:54.784Z,98473.66
2023-03-04T03:08:21.824Z,98477.44
2023-03-04T03:10:48.492Z,98472.09
2023-03-04T03:13:19.199Z,98479.53
2023-03-04T03:15:45.634Z,98474.72
2023-03-04T03:18:12.565Z,98466.34
2023-03-04T03:20:39.083Z,98473.06
2023-03-04T03:23:05.525Z,98461.56
2023-03-04T03:25:32.247Z,98468.97
2023-03-04T03:27:58.817Z,98472.53
2023-03-04T03:30:25.338Z,98456.25
2023-03-04T03:32:51.749Z,98474.72
2023-03-04T03:35:18.549Z,98463.22
2023-03-04T03:37:45.055Z,98460.72
2023-03-04T03:40:12.568Z,98453.72
2023-03-04T03:42:38.986Z,98469.09
2023-03-04T03:45:05.930Z,98471.38
2023-03-04T03:47:32.564Z,98476.19
2023-03-04T03:49:59.058Z,98470.25
2023-03-04T03:52:25.852Z,98481.63
2023-03-04T03:54:52.365Z,98484.97
2023-03-04T03:57:18.861Z,98488.53
2023-03-04T03:59:45.692Z,98486.44
2023-03-04T04:02:12.195Z,98494.88
2023-03-04T04:04:38.967Z,98482.84
2023-03-04T04:07:05.331Z,98495.00
2023-03-04T04:09:31.778Z,98488.53
2023-03-04T04:11:58.799Z,98491.13
2023-03-04T04:14:25.232Z,98497.81
2023-03-04T04:16:51.664Z,98498.78
2023-03-04T04:19:20.368Z,98500.22
2023-03-04T04:21:47.049Z,98504.41
2023-03-04T04:24:13.770Z,98503.75
2023-03-04T04:26:41.540Z,98503.75
2023-03-04T04:29:09.118Z,98506.50
2023-03-04T04:31:35.814Z,98507.22
2023-03-04T04:34:02.784Z,98509.00
2023-03-04T04:36:29.230Z,98505.03
2023-03-04T04:38:55.671Z,98496.69
2023-03-04T04:41:24.875Z,98501.16
2023-03-04T04:43:51.412Z,98508.56
2023-03-04T04:46:18.583Z,98502.72
2023-03-04T04:48:45.472Z,98500.75
2023-03-04T04:51:12.552Z,98500.53
2023-03-04T04:53:39.663Z,98515.19
2023-03-04T04:56:11.532Z,98498.94
2023-03-04T04:58:38.485Z,98497.91
2023-03-04T05:01:05.226Z,98492.25
2023-03-04T05:03:33.525Z,98500.53
2023-03-04T05:06:00.181Z,98509.31
2023-03-04T05:08:26.844Z,98504.91
2023-03-04T05:10:53.776Z,98504.41
2023-03-04T05:13:20.400Z,98513.41
2023-03-04T05:15:47.491Z,98517.47
2023-03-04T05:18:13.908Z,98512.56
2023-03-04T05:20:44.183Z,98524.44
2023-03-04T05:23:10.567Z,98524.06
2023-03-04T05:25:37.042Z,98519.84
2023-03-04T05:28:05.004Z,98523.63
2023-03-04T05:30:31.444Z,98529.25
2023-03-04T05:32:57.840Z,98521.53
2023-03-04T05:35:24.271Z,98529.69
2023-03-04T05:37:50.684Z,98527.69
2023-03-04T05:40:17.215Z,98521.72
2023-03-04T05:42:43.656Z,98528.66
2023-03-04T05:45:10.693Z,98534.91
2023-03-04T05:47:37.181Z,98530.09
2023-03-04T05:50:03.803Z,98528.34
2023-03-04T05:52:30.178Z,98535.44
2023-03-04T05:54:56.579Z,98539.84
2023-03-04T05:57:22.981Z,98533.44
2023-03-04T05:59:52.074Z,98535.75
2023-03-04T06:02:18.557Z,98528.44
2023-03-04T06:04:45.945Z,98529.50
2023-03-04T06:07:12.601Z,98538.91
2023-03-04T06:09:39.491Z,98534.72
2023-03-04T06:12:06.471Z,98539.31
2023-03-04T06:14:33.225Z,98539.50
2023-03-04T06:16:59.921Z,98537.03
2023-03-04T06:19:26.619Z,98544.22
2023-03-04T06:21:53.264Z,98538.25
2023-03-04T06:24:21.265Z,98541.59
2023-03-04T06:26:47.904Z,98541.59
2023-03-04T06:29:14.698Z,98542.56
2023-03-04T06:31:42.155Z,98544.72
2023-03-04T06:34:09.650Z,98539.94
2023-03-04T06:36:36.769Z,98523.69
2023-03-04T06:39:06.010Z,98542.63
2023-03-04T06:41:34.577Z,98547.66
2023-03-04T06:44:01.005Z,98546.41
2023-03-04T06:46:30.313Z,98550.78
2023-03-04T06:48:57.261Z,98552.47
2023-03-04T06:51:25.019Z,98560.00
2023-03-04T06:53:51.458Z,98550.78
2023-03-04T06:56:17.971Z,98551.19
2023-03-04T06:58:45.760Z,98548.16
2023-03-04T07:01:21.934Z,98550.34
2023-03-04T07:03:49.948Z,98536.13
2023-03-04T07:06:18.935Z,98533.28
2023-03-04T07:08:46.309Z,98542.81
2023-03-04T07:11:13.295Z,98541.53
2023-03-04T07:13:40.294Z,98535.47
2023-03-04T07:16:09.199Z,98533.16
2023-03-04T07:18:36.409Z,98538.03
2023-03-04T07:21:03.204Z,98534.63
2023-03-04T07:23:29.848Z,98539.84
2023-03-04T07:25:58.149Z,98543.19
2023-03-04T07:28:26.345Z,98547.41
2023-03-04T07:30:52.829Z,98553.19
2023-03-04T07:33:19.434Z,98550.91
2023-03-04T07:35:46.121Z,98548.81
2023-03-04T07:38:13.066Z,98552.91
2023-03-04T07:40:39.527Z,98559.69
2023-03-04T07:43:05.961Z,98558.78
2023-03-04T07:45:32.655Z,98564.72
2023-03-04T07:47:59.180Z,98563.03
2023-03-04T07:50:25.588Z,98558.63
2023-03-04T07:52:52.107Z,98562.75
2023-03-04T07:55:19.086Z,98557.44
2023-03-04T07:57:47.496Z,98558.16
2023-03-04T08:00:18.899Z,98558.38
2023-03-04T08:02:45.645Z,98550.63
2023-03-04T08:05:12.145Z,98556.91
2023-03-04T08:07:38.544Z,98549.72
2023-03-04T08:10:05.481Z,98553.19
2023-03-04T08:12:32.215Z,98551.41
2023-03-04T08:14:58.699Z,98551.94
2023-03-04T08:17:25.114Z,98537.75
2023-03-04T08:19:52.912Z,98548.50
2023-03-04T08:22:19.283Z,98548.38
2023-03-04T08:24:45.752Z,98545.28
2023-03-04T08:27:14.305Z,98548.78
2023-03-04T08:29:40.760Z,98542.47
2023-03-04T08:32:07.289Z,98546.25
2023-03-04T08:34:34.312Z,98543.28
2023-03-04T08:37:00.722Z,98534.53
2023-03-04T08:39:27.130Z,98533.00
2023-03-04T08:41:53.601Z,98530.75
2023-03-04T08:44:20.191Z,98530.00
2023-03-04T08:46:46.717Z,98525.66
2023-03-04T08:49:14.537Z,98530.75
2023-03-04T08:51:41.540Z,98529.78
2023-03-04T08:54:07.992Z,98519.97
2023-03-04T08:56:34.562Z,98518.16
2023-03-04T08:59:00.947Z,98513.00
2023-03-04T09:01:27.506Z,98506.75
2023-03-04T09:03:54.113Z,98491.47
2023-03-04T09:06:28.613Z,98485.91
2023-03-04T09:08:55.140Z,98461.91
2023-03-04T09:11:21.707Z,98458.09
2023-03-04T09:13:48.228Z,98450.81
2023-03-04T09:16:15.134Z,98472.81
2023-03-04T09:18:42.195Z,98481.97
2023-03-04T09:21:09.051Z,98472.38
2023-03-04T09:23:36.509Z,98479.09
2023-03-04T09:26:24.021Z,98484.59
2023-03-04T09:28:55.076Z,98486.28
2023-03-04T09:31:22.801Z,98489.03
2023-03-04T09:33:49.909Z,98483.03
2023-03-04T09:36:16.840Z,98494.63
2023-03-04T09:38:43.765Z,98495.44
2023-03-04T09:41:21.274Z,98494.28
2023-03-04T09:43:49.185Z,98487.09
2023-03-04T09:46:34.430Z,98495.72
2023-03-04T09:49:01.175Z,98487.75
2023-03-04T09:51:56.936Z,98497.34
2023-03-04T09:54:51.858Z,98491.81
2023-03-04T09:57:31.844Z,98489.69
2023-03-04T10:00:33.348Z,98485.06
2023-03-04T10:03:25.444Z,98483.94
2023-03-04T10:05:56.402Z,98486.53
2023-03-04T10:08:40.842Z,98494.69
2023-03-04T10:11:42.441Z,98484.09
2023-03-04T10:14:21.128Z,98498.38
2023-03-04T10:16:59.229Z,98490.69
2023-03-04T10:19:54.375Z,98490.25
2023-03-04T10:22:33.149Z,98495.22
2023-03-04T10:25:15.666Z,98487.94
2023-03-04T10:27:43.625Z,98486.00
2023-03-04T10:30:30.366Z,98486.00
2023-03-04T10:32:56.905Z,98479.59
2023-03-04T10:35:31.305Z,98489.63
2023-03-04T10:38:03.472Z,98495.84
2023-03-04T10:40:38.144Z,98490.09
2023-03-04T10:43:08.309Z,98470.22
2023-03-04T10:45:40.251Z,98485.75
2023-03-04T10:48:17.245Z,98483.78
2023-03-04T10:50:43.739Z,98491.25
2023-03-04T10:53:25.492Z,98483.81
2023-03-04T10:55:52.294Z,98481.94
2023-03-04T10:58:19.555Z,98481.72
2023-03-04T11:01:01.446Z,98467.31
2023-03-04T11:03:29.625Z,98474.53
2023-03-04T11:06:13.088Z,98475.69
2023-03-04T11:08:42.455Z,98480.94
2023-03-04T11:11:23.560Z,98481.19
2023-03-04T11:13:58.528Z,98467.81
2023-03-04T11:16:27.956Z,98456.28
2023-03-04T11:18:59.894Z,98458.72
2023-03-04T11:21:30.254Z,98467.94
2023-03-04T11:24:00.383Z,98469.97
2023-03-04T11:26:36.628Z,98465.38
2023-03-04T11:29:21.530Z,98461.28
2023-03-04T11:32:13.266Z,98456.34
2023-03-04T11:34:58.833Z,98450.56
2023-03-04T11:37:49.801Z,98447.22
2023-03-04T11:40:45.752Z,98448.41
2023-03-04T11:43:21.800Z,98438.72
2023-03-04T11:46:08.914Z,98443.34
2023-03-04T11:48:35.404Z,98441.41
2023-03-04T11:51:13.026Z,98441.53
2023-03-04T11:54:03.753Z,98447.03
2023-03-04T11:56:37.938Z,98448.28
2023-03-04T11:59:29.153Z,98443.06
2023-03-04T12:02:15.018Z,98441.28
2023-03-04T12:04:58.887Z,98443.47
2023-03-04T12:07:53.971Z,98435.50
2023-03-04T12:10:36.872Z,98419.69
2023-03-04T12:13:21.778Z,98428.69
2023-03-04T12:16:16.347Z,98431.81
2023-03-04T12:19:17.261Z,98432.09
2023-03-04T12:21:59.883Z,98428.28
2023-03-04T12:24:44.947Z,98425.00
2023-03-04T12:27:27.827Z,98417.81
2023-03-04T12:30:05.689Z,98430.25
2023-03-04T12:32:44.679Z,98420.84
2023-03-04T12:35:28.718Z,98431.56
2023-03-04T12:38:01.551Z,98418.41
2023-03-04T12:40:47.566Z,98419.75
2023-03-04T12:43:45.831Z,98419.38
2023-03-04T12:46:36.148Z,98425.91
2023-03-04T12:49:18.692Z,98424.03
2023-03-04T12:51:56.832Z,98414.88
2023-03-04T12:54:34.677Z,98401.41
2023-03-04T12:57:14.497Z,98406.41
2023-03-04T12:59:50.166Z,98406.94
2023-03-04T13:02:54.104Z,98387.59
2023-03-04T13:05:29.876Z,98401.19
2023-03-04T13:08:52.766Z,98399.22
2023-03-04T13:11:31.361Z,98389.69
2023-03-04T13:14:17.689Z,98386.34
2023-03-04T13:16:49.262Z,98386.22
2023-03-04T13:19:48.286Z,98386.72
2023-03-04T13:22:34.037Z,98382.63
2023-03-04T13:25:20.695Z,98373.13
2023-03-04T13:27:50.508Z,98375.72
2023-03-04T13:30:32.175Z,98365.38
2023-03-04T13:33:38.786Z,98368.56
2023-03-04T13:36:25.638Z,98355.03
2023-03-04T13:39:21.796Z,98364.69
2023-03-04T13:41:56.719Z,98361.47
2023-03-04T13:44:33.648Z,98362.78
2023-03-04T13:47:14.305Z,98366.22
2023-03-04T13:49:40.855Z,98356.97
2023-03-04T13:52:41.362Z,98332.97
2023-03-04T13:55:39.890Z,98341.63
2023-03-04T13:58:26.046Z,98349.13
2023-03-04T14:00:54.902Z,98347.31
2023-03-04T14:03:24.711Z,98340.97
2023-03-04T14:06:10.952Z,98351.03
2023-03-04T14:08:37.423Z,98347.19
2023-03-04T14:11:03.864Z,98347.97
2023-03-04T14:13:30.389Z,98348.41
2023-03-04T14:15:58.956Z,98339.97
2023-03-04T14:18:25.914Z,98346.88
2023-03-04T14:20:58.812Z,98330.25
2023-03-04T14:23:32.043Z,98346.19
2023-03-04T14:26:14.166Z,98327.19
2023-03-04T14:28:49.280Z,98325.09
2023-03-04T14:31:24.545Z,98321.78
2023-03-04T14:33:59.867Z,98319.50
2023-03-04T14:36:26.916Z,98333.34
2023-03-04T14:39:00.225Z,98324.66
2023-03-04T14:41:33.802Z,98308.63
2023-03-04T14:44:12.430Z,98311.69
2023-03-04T14:47:06.605Z,98296.91
2023-03-04T14:49:36.426Z,98302.00
2023-03-04T14:52:03.224Z,98297.91
2023-03-04T14:54:40.372Z,98298.56
2023-03-04T14:57:21.078Z,98295.09
2023-03-04T14:59:47.803Z,98282.84
2023-03-04T15:02:23.220Z,98292.31
2023-03-04T15:04:51.831Z,98298.38
2023-03-04T15:07:28.665Z,98301.66
2023-03-04T15:09:55.908Z,98291.41
2023-03-04T15:12:28.586Z,98293.94
2023-03-04T15:15:00.359Z,98286.22
2023-03-04T15:17:38.894Z,98282.44
2023-03-04T15:20:10.596Z,98213.31
2023-03-04T15:22:49.879Z,98291.41
2023-03-04T15:25:20.324Z,98288.63
2023-03-04T15:27:48.920Z,98287.66
2023-03-04T15:30:24.789Z,98294.72
2023-03-04T15:32:51.588Z,98293.94
2023-03-04T15:35:19.503Z,98315.09
2023-03-04T15:37:47.994Z,98316.00
2023-03-04T15:40:27.107Z,98315.06
2023-03-04T15:42:55.279Z,98348.09
2023-03-04T15:45:25.213Z,98350.69
2023-03-04T15:47:51.876Z,98352.03
2023-03-04T15:50:20.009Z,98347.66
2023-03-04T15:52:48.232Z,98349.28
2023-03-04T15:55:19.331Z,98336.22
2023-03-04T15:57:48.865Z,98321.59
2023-03-04T16:00:16.290Z,98322.50
2023-03-04T16:02:43.304Z,98309.69
2023-03-04T16:05:10.451Z,98306.09
2023-03-04T16:07:38.372Z,98307.56
2023-03-04T16:10:18.620Z,98293.22
2023-03-04T16:12:45.348Z,98301.28
2023-03-04T16:15:21.359Z,98290.59
2023-03-04T16:17:48.845Z,98276.06
2023-03-04T16:20:18.270Z,98280.19
2023-03-04T16:22:46.975Z,98278.53
2023-03-04T16:25:15.613Z,98268.75
2023-03-04T16:27:42.776Z,98267.06
2023-03-04T16:30:15.158Z,98268.94
2023-03-04T16:32:41.598Z,98277.28
2023-03-04T16:35:08.830Z,98276.63
2023-03-04T16:37:35.291Z,98279.63
2023-03-04T16:40:02.377Z,98295.56
2023-03-04T16:42:28.798Z,98299.03
2023-03-04T16:44:55.316Z,98305.88
2023-03-04T16:47:21.849Z,98321.75
2023-03-04T16:49:50.031Z,98310.00
2023-03-04T16:52:49.503Z,98309.50
2023-03-04T16:55:20.753Z,98314.56
2023-03-04T16:57:48.086Z,98327.59
2023-03-04T17:00:17.503Z,98319.22
2023-03-04T17:02:45.046Z,98320.19
2023-03-04T17:05:21.329Z,98322.50
2023-03-04T17:07:47.890Z,98327.88
2023-03-04T17:10:15.837Z,98315.25
2023-03-04T17:15:13.580Z,98305.41
2023-03-04T17:17:41.949Z,98311.13
2023-03-04T17:20:10.189Z,98314.22
2023-03-04T17:22:36.888Z,98315.28
2023-03-04T17:25:04.106Z,98308.97
2023-03-04T17:27:30.782Z,98320.00
2023-03-04T17:29:57.325Z,98318.28
2023-03-04T17:32:26.248Z,98315.00
2023-03-04T17:34:57.590Z,98310.91
2023-03-04T17:37:24.314Z,98306.00
2023-03-04T17:39:50.830Z,98308.75
2023-03-04T17:42:18.828Z,98320.75
2023-03-04T17:44:45.902Z,98316.81
2023-03-04T17:47:13.031Z,98310.31
2023-03-04T17:49:39.847Z,98324.72
2023-03-04T17:52:06.511Z,98312.06
2023-03-04T17:54:32.976Z,98325.06
2023-03-04T17:56:59.530Z,98311.50
2023-03-04T17:59:25.957Z,98318.19
2023-03-04T18:01:54.298Z,98312.81
2023-03-04T18:04:21.357Z,98311.28
2023-03-04T18:06:47.924Z,98307.72
2023-03-04T18:09:14.505Z,98300.91
2023-03-04T18:11:42.442Z,98296.97
2023-03-04T18:14:12.235Z,98290.78
2023-03-04T18:16:39.337Z,98289.56
2023-03-04T18:19:06.161Z,98285.94
2023-03-04T18:21:33.141Z,98282.00
2023-03-04T18:23:59.583Z,98263.44
2023-03-04T18:26:27.189Z,98279.72
2023-03-04T18:28:55.625Z,98265.44
2023-03-04T18:31:24.670Z,98265.44
2023-03-04T18:33:51.847Z,98258.38
2023-03-04T18:36:18.554Z,98250.88
2023-03-04T18:38:45.014Z,98250.31
2023-03-04T18:41:15.029Z,98246.59
2023-03-04T18:43:42.055Z,98241.97
2023-03-04T18:46:29.918Z,98244.31
2023-03-04T18:49:01.500Z,98235.06
2023-03-04T18:51:27.909Z,98234.28
2023-03-04T18:53:54.516Z,98224.16
2023-03-04T18:59:15.580Z,98225.59
2023-03-04T19:01:42.152Z,98221.09
2023-03-04T19:04:09.396Z,98232.28
2023-03-04T19:06:36.051Z,98225.97
2023-03-04T19:09:02.615Z,98237.94
2023-03-04T19:11:31.452Z,98236.97
2023-03-04T19:13:58.343Z,98230.31
2023-03-04T19:16:25.224Z,98235.78
2023-03-04T19:18:52.328Z,98236.75
2023-03-04T19:21:19.480Z,98235.09
2023-03-04T19:23:49.258Z,98240.13
2023-03-04T19:26:15.770Z,98245.34
2023-03-04T19:28:42.749Z,98255.84
2023-03-04T19:33:52.236Z,98258.75
2023-03-04T19:36:18.972Z,98288.03
2023-03-04T19:38:45.561Z,98291.47
2023-03-04T19:41:16.851Z,98324.69
2023-03-04T19:43:45.950Z,98322.19
2023-03-04T19:46:13.110Z,98329.84
2023-03-04T19:48:40.922Z,98323.06
2023-03-04T19:51:19.319Z,98296.63
2023-03-04T19:53:46.007Z,98291.25
2023-03-04T19:56:12.685Z,98294.34
2023-03-04T19:58:39.262Z,98294.94
2023-03-04T20:01:06.282Z,98312.91
2023-03-04T20:03:32.861Z,98308.28
2023-03-04T20:06:07.551Z,98295.91
2023-03-04T20:08:38.396Z,98297.78
2023-03-04T20:11:12.851Z,98298.38
2023-03-04T20:13:39.285Z,98282.31
2023-03-04T20:16:13.044Z,98287.78
2023-03-04T20:18:39.870Z,98289.66
2023-03-04T20:21:07.336Z,98287.41
2023-03-04T20:23:36.028Z,98277.31
2023-03-04T20:26:03.832Z,98270.66
2023-03-04T20:28:30.837Z,98256.84
2023-03-04T20:31:31.620Z,98244.34
2023-03-04T20:33:59.739Z,98258.25
2023-03-04T20:36:29.927Z,98260.16
2023-03-04T20:39:02.406Z,98270.16
2023-03-04T20:41:35.854Z,98280.16
2023-03-04T20:44:02.295Z,98279.78
2023-03-04T20:46:41.041Z,98286.56
2023-03-04T20:49:33.751Z,98277.06
2023-03-04T20:52:07.979Z,98284.66
2023-03-04T20:54:38.489Z,98282.16
2023-03-04T20:57:08.065Z,98278.00
2023-03-04T20:59:35.823Z,98277.19
2023-03-04T21:02:02.802Z,98282.50
2023-03-04T21:04:30.781Z,98281.34
2023-03-04T21:06:58.399Z,98269.22
2023-03-04T21:09:25.052Z,98272.41
2023-03-04T21:11:51.625Z,98279.94
2023-03-04T21:14:22.079Z,98262.78
2023-03-04T21:16:51.166Z,98268.16
2023-03-04T21:19:27.372Z,98262.31
2023-03-04T21:21:55.581Z,98255.16
2023-03-04T21:24:25.000Z,98251.16
2023-03-04T21:26:51.709Z,98251.13
2023-03-04T21:29:20.776Z,98257.31
2023-03-04T21:31:51.653Z,98254.81
2023-03-04T21:34:24.456Z,98258.50
2023-03-04T21:36:51.029Z,98249.22
2023-03-04T21:39:23.040Z,98256.94
2023-03-04T21:41:50.056Z,98252.06
2023-03-04T21:44:27.916Z,98249.44
2023-03-04T21:46:58.619Z,98247.91
2023-03-04T21:49:26.185Z,98243.75
2023-03-04T21:51:52.620Z,98244.69
2023-03-04T21:54:19.269Z,98248.03
2023-03-04T21:56:46.992Z,98248.03
2023-03-04T21:59:14.641Z,98246.75
2023-03-04T22:01:42.060Z,98240.66
2023-03-04T22:04:09.575Z,98246.09
2023-03-04T22:06:36.117Z,98244.13
2023-03-04T22:09:04.661Z,98245.28
2023-03-04T22:11:31.485Z,98243.97
2023-03-04T22:14:00.113Z,98242.06
2023-03-04T22:16:27.810Z,98248.97
2023-03-04T22:18:54.458Z,98248.03
2023-03-04T22:21:21.820Z,98247.28
2023-03-04T22:23:51.555Z,98243.50
2023-03-04T22:26:21.664Z,98251.13
2023-03-04T22:28:48.524Z,98250.19
2023-03-04T22:31:20.674Z,98253.38
2023-03-04T22:33:48.018Z,98243.88
2023-03-04T22:36:14.751Z,98247.91
2023-03-04T22:38:41.438Z,98257.91
2023-03-04T22:41:15.756Z,98238.03
2023-03-04T22:43:43.168Z,98251.34
2023-03-04T22:46:21.125Z,98249.19
2023-03-04T22:48:49.007Z,98252.63
2023-03-04T22:51:15.874Z,98238.94
2023-03-04T22:53:43.525Z,98255.34
2023-03-04T22:56:11.251Z,98256.69
2023-03-04T22:58:37.798Z,98261.06
2023-03-04T23:01:05.407Z,98258.59
2023-03-04T23:03:32.120Z,98252.41
2023-03-04T23:06:11.715Z,98264.16
2023-03-04T23:08:40.970Z,98265.81
2023-03-04T23:11:13.185Z,98263.19
2023-03-04T23:13:40.565Z,98262.00
2023-03-04T23:16:09.766Z,98275.34
2023-03-04T23:18:38.336Z,98269.50
2023-03-04T23:21:15.232Z,98263.44
2023-03-04T23:23:42.049Z,98282.94
2023-03-04T23:26:17.072Z,98297.06
2023-03-04T23:28:44.217Z,98290.53
2023-03-04T23:31:14.860Z,98288.44
2023-03-04T23:33:46.552Z,98290.06
2023-03-04T23:36:17.167Z,98295.44
2023-03-04T23:38:45.226Z,98296.00
2023-03-04T23:41:17.905Z,98303.38
2023-03-04T23:43:44.725Z,98297.91
2023-03-04T23:46:11.713Z,98308.16
2023-03-04T23:48:39.910Z,98302.66
2023-03-04T23:51:11.463Z,98291.94
2023-03-04T23:53:39.130Z,98302.09
2023-03-04T23:56:10.423Z,98301.81
2023-03-04T23:58:37.366Z,98297.16
